world map with OMR marked

OMR - Airport

This information may not be accurate or current and is not valid for navigation or flight planning. No warranty of fitness for any purpose is made or implied.

flag of Romania

Donate via PayPal

Additional information is available on the NEW Great Circle Mapper

Location
City:  Oradea, Bihor, Romania
ICAO / IATA:LROD / OMR

Details
Type:Airport (Aerodrome, Airfield)
Use:Public/Civil
Latitude:47°01'31"N (47.025278)
Longitude:21°54'09"E (21.902500)
Datum:WGS 1984
Elevation:465 ft (142 m)
Runways:1
Longest:5906 × 98 ft (1800 × 30 m)

Time
Timezone:UTC+2 (DST+5)
Local Time:

Weather
METAR:LROD  182000Z AUTO 00000KT 3700 BR FEW002/// BKN043/// M06/M06 Q1029
TAF:LROD  (expired)

Related Locations
Nearby:
Farthest:CHT: 11522 mi / 18542 km
Waitangi [Tuuta], CIT, NZ

Find:

   beyond  
but within

Other Information
Maps:
Sources:

  


 


Great Circle Mapper   Great Circle Mapper
Great Circle Mapper FAQ   Great Circle Mapper FAQ
  Karl's Home Page
KLSē   KLSē Home
   GC on Facebook
Airlines of the World   Airlines of the World
Donate via PayPal


Copyright © 2004-2018, Karl L. Swartz. All rights reserved.
All trademarks mentioned herein belong to their respective owners.

Please see credits for attribution and copyright information.

Karl Swartz <karl@kls2.com>
  Powered by FreeBSD
Valid HTML 4.01!
Labeled with ICRA
hCard Microformat
Geo Microformat